Tenente Portela, Brazil
Current Conditions -  °F | °C
As of 11:00 PM on Monday 20 Oct 2014 (Local Time) from SBCH Reporting Station
Clear Clear  
Wind Chill: 64°   Ceiling: Unl
Heat Index: 64°   Visibility: 6mi
Dew Point: 52°   Wind: 16mph
Humidity: 64%   Direction: 140°SE
Pressure: 30.12"   Gusts: NA
Location:  27.37°S, 53.76°W
Report Text: SBCH 210200Z 14014KT CAVOK 18/11 Q1020
Loading
Personal Weather Stations






























Interactive Weather Map
Tropical Storm Tracking
New forecast layout! Learn more

10-Day Weather Forecast

Advertisements
Track Severe Weather on mobile